Time;durP1;ratioP1;P1;durP2;ratioP2;P2;SDS_P1;SDS_P2;PMS_P1;PMS_P2;Temp;Humidity;BMP_temperature;BMP_pressure;BME280_temperature;BME280_humidity;BME280_pressure;Samples;Min_cycle;Max_cycle;Signal;HPM_P1;HPM_P2
2022/06/25 00:01:27;;;;;;;4.20;3.50;;;21.10;61.20;;;;;;5032159;28;20466;-71
2022/06/25 00:03:53;;;;;;;8.70;3.83;;;21.00;60.00;;;;;;5025531;28;20953;-70
2022/06/25 00:06:20;;;;;;;7.10;4.20;;;21.20;59.00;;;;;;5030224;28;20450;-70
2022/06/25 00:08:47;;;;;;;7.10;3.93;;;21.20;59.20;;;;;;5022465;28;20439;-70
2022/06/25 00:13:58;;;;;;;9.13;4.03;;;21.10;58.90;;;;;;5025974;28;20422;-70
2022/06/25 00:16:24;;;;;;;9.50;4.20;;;21.00;58.80;;;;;;5025059;28;20468;-71
2022/06/25 00:18:50;;;;;;;13.90;3.50;;;20.80;59.30;;;;;;5029627;28;20565;-71
2022/06/25 00:21:15;;;;;;;14.33;4.07;;;20.90;57.00;;;;;;5029918;28;20183;-71
2022/06/25 00:23:41;;;;;;;5.60;4.20;;;20.70;59.30;;;;;;5027613;28;20212;-70
2022/06/25 00:26:06;;;;;;;4.87;3.83;;;20.80;58.20;;;;;;5023810;28;20229;-70
2022/06/25 00:28:32;;;;;;;13.53;4.30;;;20.70;59.00;;;;;;5030913;28;20192;-69
2022/06/25 00:30:58;;;;;;;7.30;4.17;;;20.60;58.40;;;;;;5025290;28;20194;-70
2022/06/25 00:33:23;;;;;;;4.57;4.00;;;20.20;60.40;;;;;;5031579;28;20192;-70
2022/06/25 00:35:49;;;;;;;6.00;3.63;;;20.40;59.90;;;;;;5030886;28;20297;-70
2022/06/25 00:38:14;;;;;;;7.97;4.20;;;20.30;61.10;;;;;;5033041;28;20669;-70
2022/06/25 00:40:40;;;;;;;7.30;3.97;;;20.20;61.50;;;;;;5031943;28;20190;-70
2022/06/25 00:43:05;;;;;;;11.20;4.03;;;20.30;60.90;;;;;;5023040;28;20195;-70
2022/06/25 00:45:31;;;;;;;9.90;4.60;;;20.30;60.50;;;;;;5022080;28;20698;-70
2022/06/25 00:47:57;;;;;;;10.83;4.17;;;20.20;61.60;;;;;;5024949;28;20187;-70
2022/06/25 00:50:22;;;;;;;5.33;3.87;;;20.10;61.40;;;;;;5027629;28;20186;-71
2022/06/25 00:52:52;;;;;;;13.90;4.40;;;20.30;59.10;;;;;;5023790;28;20214;-71
2022/06/25 00:55:20;;;;;;;8.13;3.70;;;20.30;60.10;;;;;;5026878;28;20208;-70
2022/06/25 00:57:50;;;;;;;7.57;4.70;;;20.10;59.60;;;;;;5029292;28;20437;-70
2022/06/25 01:00:17;;;;;;;7.73;4.67;;;20.10;59.70;;;;;;5023607;28;20469;-70
2022/06/25 01:02:44;;;;;;;6.87;4.03;;;20.00;61.20;;;;;;5024037;28;20452;-70
2022/06/25 01:05:12;;;;;;;6.60;4.30;;;20.00;62.30;;;;;;5024232;28;20927;-70
2022/06/25 01:07:40;;;;;;;11.93;4.90;;;20.00;62.70;;;;;;5030486;28;20429;-70
2022/06/25 01:10:06;;;;;;;10.80;4.40;;;19.90;62.20;;;;;;5028746;28;20451;-70
2022/06/25 01:12:33;;;;;;;20.57;4.47;;;20.10;60.80;;;;;;5030547;28;20455;-70
2022/06/25 01:15:14;;;;;;;5.33;4.37;;;20.10;59.80;;;;;;5027098;28;20458;-70
2022/06/25 01:17:48;;;;;;;5.10;3.93;;;20.00;60.50;;;;;;5025940;28;20444;-70
2022/06/25 01:20:15;;;;;;;9.40;4.50;;;19.90;61.10;;;;;;5029656;28;20450;-70
2022/06/25 01:22:41;;;;;;;8.30;4.10;;;20.00;59.20;;;;;;5026665;28;20464;-70
2022/06/25 01:25:12;;;;;;;7.23;4.23;;;19.90;61.10;;;;;;5031141;28;20456;-70
2022/06/25 01:27:38;;;;;;;9.80;4.57;;;19.90;61.70;;;;;;5027933;28;20258;-70
2022/06/25 01:30:06;;;;;;;9.70;4.30;;;19.80;62.30;;;;;;5024056;28;20428;-70
2022/06/25 01:32:31;;;;;;;6.30;3.77;;;19.80;61.10;;;;;;5028259;28;20458;-70
2022/06/25 01:34:57;;;;;;;5.53;3.83;;;19.80;60.60;;;;;;5022684;28;20469;-70
2022/06/25 01:37:22;;;;;;;13.57;4.87;;;19.90;57.80;;;;;;5031545;28;20665;-70
2022/06/25 01:39:56;;;;;;;19.63;4.87;;;20.00;58.70;;;;;;5030037;28;20181;-70
2022/06/25 01:45:08;;;;;;;7.53;3.83;;;19.70;60.70;;;;;;5027092;28;20445;-70
2022/06/25 01:47:34;;;;;;;10.20;4.40;;;19.70;59.60;;;;;;5025087;28;20497;-70
2022/06/25 01:49:59;;;;;;;5.80;3.80;;;19.70;60.70;;;;;;5029753;28;20419;-70
2022/06/25 01:52:25;;;;;;;14.80;3.97;;;19.70;59.80;;;;;;5023504;28;20178;-70
2022/06/25 01:54:51;;;;;;;4.80;3.43;;;19.70;60.30;;;;;;5027983;28;20217;-70
2022/06/25 01:57:16;;;;;;;8.00;4.10;;;19.80;58.50;;;;;;5030841;28;20657;-70
2022/06/25 01:59:44;;;;;;;5.63;3.70;;;19.70;59.20;;;;;;5024721;28;20182;-70
2022/06/25 02:02:09;;;;;;;5.40;3.60;;;19.60;60.00;;;;;;5028853;28;20284;-71
2022/06/25 02:04:35;;;;;;;6.50;3.70;;;19.70;57.60;;;;;;5023806;28;20988;-70
2022/06/25 02:07:01;;;;;;;4.70;3.53;;;19.70;58.50;;;;;;5030060;28;20189;-69
2022/06/25 02:09:26;;;;;;;5.77;3.60;;;19.70;57.60;;;;;;5031084;28;20169;-70
2022/06/25 02:11:52;;;;;;;7.83;3.83;;;19.60;60.30;;;;;;5028483;28;20177;-69
2022/06/25 02:14:17;;;;;;;6.90;3.70;;;19.60;59.00;;;;;;5029192;28;20227;-70
2022/06/25 02:16:43;;;;;;;14.73;4.00;;;19.50;60.00;;;;;;5029481;28;20612;-69
2022/06/25 02:19:09;;;;;;;4.93;3.70;;;19.60;58.20;;;;;;5029507;28;20185;-70
2022/06/25 02:21:35;;;;;;;4.27;3.93;;;19.50;57.40;;;;;;5030110;28;20208;-70
2022/06/25 02:24:01;;;;;;;12.13;3.60;;;19.60;58.30;;;;;;5028957;28;20288;-71
2022/06/25 02:26:27;;;;;;;6.37;3.53;;;19.50;59.90;;;;;;5030285;28;21150;-70
2022/06/25 02:28:52;;;;;;;4.87;3.23;;;19.60;57.50;;;;;;5030758;28;20427;-70
2022/06/25 02:31:18;;;;;;;3.87;3.40;;;19.70;55.40;;;;;;5002336;28;20184;-70
2022/06/25 02:33:44;;;;;;;9.23;3.50;;;19.50;57.80;;;;;;5029998;28;20726;-70
2022/06/25 02:36:09;;;;;;;4.30;3.23;;;19.40;58.90;;;;;;5022722;28;20204;-70
2022/06/25 02:38:35;;;;;;;6.00;3.33;;;19.30;59.10;;;;;;5029649;28;20189;-70
2022/06/25 02:41:00;;;;;;;8.90;3.33;;;18.40;56.40;;;;;;5023000;28;20207;-70
2022/06/25 02:43:26;;;;;;;8.83;3.50;;;19.50;57.80;;;;;;5020759;28;20669;-70
2022/06/25 02:45:52;;;;;;;14.40;3.77;;;19.20;59.90;;;;;;5028878;28;20204;-69
2022/06/25 02:48:17;;;;;;;6.03;3.97;;;19.10;58.80;;;;;;5028881;28;20195;-70
2022/06/25 02:50:43;;;;;;;6.20;4.00;;;19.00;61.40;;;;;;5029847;28;20344;-70
2022/06/25 02:53:09;;;;;;;5.13;3.57;;;19.20;60.30;;;;;;5019557;28;20181;-70
2022/06/25 03:01:03;;;;;;;22.07;5.40;;;19.10;60.20;;;;;;5020536;28;20446;-70
2022/06/25 03:03:29;;;;;;;5.70;4.50;;;19.20;59.30;;;;;;5028172;28;20550;-69
2022/06/25 03:05:54;;;;;;;5.23;3.67;;;19.20;58.20;;;;;;5027802;28;20590;-70
2022/06/25 03:08:20;;;;;;;8.17;4.20;;;19.30;57.40;;;;;;5029521;28;20173;-70
2022/06/25 03:10:46;;;;;;;8.07;3.70;;;19.40;57.60;;;;;;5022371;28;20176;-70
2022/06/25 03:13:11;;;;;;;7.03;3.77;;;19.50;57.50;;;;;;5030008;28;20692;-70
2022/06/25 03:15:37;;;;;;;9.83;4.07;;;19.50;58.70;;;;;;5029272;28;20343;-70
2022/06/25 03:18:03;;;;;;;6.90;3.90;;;19.40;58.30;;;;;;5025044;28;20212;-70
2022/06/25 03:20:29;;;;;;;5.20;3.83;;;19.20;58.50;;;;;;5029018;28;20198;-70
2022/06/25 03:22:55;;;;;;;17.33;4.87;;;19.10;58.50;;;;;;5029614;28;20200;-70
2022/06/25 03:25:21;;;;;;;5.00;4.20;;;19.10;60.30;;;;;;5029314;28;20442;-70
2022/06/25 03:27:47;;;;;;;7.37;4.00;;;19.00;59.00;;;;;;5021709;28;20427;-70
2022/06/25 03:30:12;;;;;;;6.83;4.07;;;19.00;58.20;;;;;;5026868;28;20239;-70
2022/06/25 03:32:38;;;;;;;7.07;3.87;;;19.00;58.30;;;;;;5027419;28;20243;-70
2022/06/25 03:35:04;;;;;;;5.97;4.17;;;19.00;58.70;;;;;;5019157;28;20267;-70
2022/06/25 03:37:29;;;;;;;7.13;4.40;;;18.80;59.80;;;;;;5026080;28;20186;-70
2022/06/25 03:39:55;;;;;;;10.33;4.20;;;18.70;59.90;;;;;;5023955;28;20516;-70
2022/06/25 03:42:20;;;;;;;6.10;4.03;;;18.90;60.30;;;;;;5029339;28;20568;-70
2022/06/25 03:44:46;;;;;;;6.13;3.87;;;18.80;59.80;;;;;;5026512;28;20213;-70
2022/06/25 03:47:12;;;;;;;5.13;4.10;;;18.80;59.10;;;;;;5020398;28;20692;-70
2022/06/25 03:49:37;;;;;;;8.77;4.43;;;18.80;59.70;;;;;;5023985;28;20231;-70
2022/06/25 03:52:03;;;;;;;6.73;4.40;;;18.80;60.20;;;;;;5032880;28;20666;-70
2022/06/25 03:54:29;;;;;;;6.10;4.20;;;18.70;59.70;;;;;;5032355;28;20264;-70
2022/06/25 03:56:54;;;;;;;9.73;3.87;;;18.80;60.10;;;;;;5018924;28;20524;-70
2022/06/25 03:59:20;;;;;;;8.93;4.40;;;18.80;59.50;;;;;;5024233;28;20176;-70
2022/06/25 04:01:46;;;;;;;10.73;4.00;;;18.90;59.70;;;;;;5027648;28;20228;-70
2022/06/25 04:04:11;;;;;;;8.90;4.30;;;18.90;60.60;;;;;;5032533;28;20969;-70
2022/06/25 04:06:37;;;;;;;4.37;3.70;;;19.00;60.20;;;;;;5031740;28;20285;-70
2022/06/25 04:09:04;;;;;;;7.30;3.90;;;19.00;60.50;;;;;;5024342;28;20263;-70
2022/06/25 04:11:29;;;;;;;5.20;4.00;;;18.90;61.10;;;;;;5014670;28;20184;-70
2022/06/25 04:13:55;;;;;;;6.93;4.00;;;19.00;60.00;;;;;;5033104;28;20420;-70
2022/06/25 04:16:22;;;;;;;6.07;4.17;;;19.10;59.90;;;;;;5024841;28;20214;-70
2022/06/25 04:18:48;;;;;;;5.40;3.87;;;19.10;60.50;;;;;;5031590;28;20442;-70
2022/06/25 04:21:13;;;;;;;5.23;4.30;;;19.10;60.70;;;;;;5032174;28;20515;-70
2022/06/25 04:23:39;;;;;;;6.73;3.93;;;19.20;60.70;;;;;;5031789;28;20966;-70
2022/06/25 04:26:05;;;;;;;9.53;3.70;;;19.10;59.90;;;;;;5032483;28;20202;-70
2022/06/25 04:31:15;;;;;;;5.70;4.00;;;19.00;60.30;;;;;;5031360;28;20188;-70
2022/06/25 04:33:40;;;;;;;5.43;4.23;;;19.20;60.90;;;;;;5032129;28;20419;-70
2022/06/25 04:36:06;;;;;;;4.50;3.60;;;19.40;60.80;;;;;;5029419;28;20206;-71
2022/06/25 04:38:32;;;;;;;16.27;4.30;;;19.40;59.90;;;;;;5017057;28;20274;-70
2022/06/25 04:40:57;;;;;;;17.33;5.80;;;19.60;59.90;;;;;;5028569;28;20186;-70
2022/06/25 04:43:23;;;;;;;5.60;4.00;;;19.70;59.40;;;;;;5032049;28;20237;-70
2022/06/25 04:45:50;;;;;;;13.03;4.10;;;19.70;59.70;;;;;;5014757;28;20734;-70
2022/06/25 04:48:15;;;;;;;7.00;3.60;;;19.60;60.10;;;;;;5030180;28;20922;-70
2022/06/25 04:50:45;;;;;;;4.57;4.03;;;19.60;60.70;;;;;;5021260;28;20489;-70
2022/06/25 04:53:11;;;;;;;7.43;4.60;;;19.60;62.10;;;;;;5027168;28;20265;-70
2022/06/25 04:55:37;;;;;;;9.10;4.17;;;19.50;61.60;;;;;;5025831;28;20465;-71
2022/06/25 04:58:02;;;;;;;8.07;3.93;;;19.70;61.80;;;;;;5032289;28;20497;-71
2022/06/25 05:00:28;;;;;;;6.60;3.60;;;19.70;61.30;;;;;;5023949;28;20192;-72
2022/06/25 05:02:53;;;;;;;5.80;3.73;;;19.80;61.10;;;;;;5015112;28;20197;-71
2022/06/25 05:05:19;;;;;;;5.33;3.80;;;19.80;59.30;;;;;;5029659;28;20205;-71
2022/06/25 05:07:45;;;;;;;6.10;4.07;;;19.90;60.00;;;;;;5026909;28;20184;-71
2022/06/25 05:10:11;;;;;;;20.40;4.27;;;20.00;60.30;;;;;;5027573;28;20680;-71
2022/06/25 05:15:21;;;;;;;6.47;4.50;;;20.00;61.60;;;;;;5028584;28;20277;-71
2022/06/25 05:17:47;;;;;;;5.40;4.20;;;20.10;62.70;;;;;;5027674;28;20941;-72
2022/06/25 05:20:13;;;;;;;20.60;4.43;;;20.10;63.00;;;;;;5028420;28;20432;-71
2022/06/25 05:22:38;;;;;;;4.43;3.80;;;20.20;63.00;;;;;;5029822;28;20538;-71
2022/06/25 05:25:05;;;;;;;4.73;3.43;;;20.20;60.70;;;;;;5031159;28;20238;-71
2022/06/25 05:27:30;;;;;;;4.50;3.40;;;20.20;59.00;;;;;;5028790;28;20261;-71
2022/06/25 05:29:56;;;;;;;5.03;3.37;;;20.40;58.20;;;;;;5030918;28;20567;-70
2022/06/25 05:32:21;;;;;;;4.30;3.63;;;20.20;58.10;;;;;;5026935;28;20678;-71
2022/06/25 05:34:48;;;;;;;6.97;3.67;;;19.50;57.60;;;;;;5027255;28;20291;-71
2022/06/25 05:37:14;;;;;;;7.00;3.50;;;19.10;62.40;;;;;;5030410;28;20182;-71
2022/06/25 05:39:40;;;;;;;5.57;2.80;;;19.30;59.10;;;;;;5031429;28;20432;-72
2022/06/25 05:42:06;;;;;;;5.80;3.20;;;19.20;55.70;;;;;;5030078;28;21150;-72
2022/06/25 05:44:31;;;;;;;5.20;3.30;;;19.10;60.50;;;;;;5031373;28;20296;-73
2022/06/25 05:46:57;;;;;;;6.60;5.33;;;19.50;59.30;;;;;;5023278;28;20190;-73
2022/06/25 05:49:22;;;;;;;14.10;6.30;;;19.90;58.00;;;;;;5029803;28;20604;-71
2022/06/25 05:51:48;;;;;;;11.93;7.00;;;19.70;59.40;;;;;;5027276;28;20191;-73
2022/06/25 05:54:14;;;;;;;9.53;6.80;;;19.80;59.90;;;;;;5022140;28;20192;-72
2022/06/25 05:56:39;;;;;;;10.00;6.43;;;19.80;59.60;;;;;;5029261;28;21733;-73
2022/06/25 05:59:05;;;;;;;8.90;5.40;;;19.70;61.00;;;;;;5027183;28;20181;-71
2022/06/25 06:01:31;;;;;;;6.87;5.17;;;19.70;61.20;;;;;;5027459;28;20285;-71
2022/06/25 06:03:56;;;;;;;7.43;4.17;;;19.40;62.60;;;;;;5030720;28;20602;-71
2022/06/25 06:06:22;;;;;;;5.73;4.43;;;19.30;63.60;;;;;;5022704;28;20207;-72
2022/06/25 06:08:48;;;;;;;4.27;4.00;;;19.80;64.80;;;;;;5026186;28;20229;-70
2022/06/25 06:11:13;;;;;;;10.00;4.00;;;19.70;60.20;;;;;;5024669;28;20976;-73
2022/06/25 06:13:39;;;;;;;5.20;4.63;;;19.70;61.70;;;;;;5025827;28;20187;-72
2022/06/25 06:16:04;;;;;;;5.90;4.40;;;20.30;65.50;;;;;;5029536;28;20220;-71
2022/06/25 06:18:30;;;;;;;7.13;4.20;;;20.70;62.50;;;;;;5028218;28;20204;-71
2022/06/25 06:20:55;;;;;;;15.77;4.23;;;21.00;58.80;;;;;;5029132;28;20195;-71
2022/06/25 06:23:21;;;;;;;4.30;3.90;;;21.10;58.00;;;;;;5028756;28;20212;-71
2022/06/25 06:25:47;;;;;;;22.63;4.30;;;20.40;57.20;;;;;;5024963;28;20234;-71
2022/06/25 06:28:12;;;;;;;6.50;3.70;;;20.60;58.50;;;;;;5022680;28;20194;-71
2022/06/25 06:30:38;;;;;;;6.90;3.50;;;20.60;56.50;;;;;;5031336;28;20181;-71
2022/06/25 06:33:03;;;;;;;6.27;3.63;;;20.40;55.40;;;;;;5030771;28;20231;-70
2022/06/25 06:35:29;;;;;;;7.33;3.83;;;20.30;59.40;;;;;;5028081;28;20263;-71
2022/06/25 06:37:55;;;;;;;6.70;3.50;;;20.30;58.50;;;;;;5025091;28;20190;-71
2022/06/25 06:40:20;;;;;;;9.83;3.40;;;20.20;60.60;;;;;;5020882;28;20224;-70
2022/06/25 06:42:46;;;;;;;7.70;3.10;;;20.70;61.10;;;;;;5025209;28;20182;-70
2022/06/25 06:45:12;;;;;;;4.70;3.13;;;21.20;56.00;;;;;;5019556;28;20204;-70
2022/06/25 06:47:37;;;;;;;5.13;3.50;;;21.30;54.20;;;;;;5022724;28;20207;-70
2022/06/25 06:50:03;;;;;;;4.23;3.00;;;21.70;58.40;;;;;;5023844;28;20248;-70
2022/06/25 06:52:29;;;;;;;4.70;3.47;;;22.00;50.60;;;;;;5014245;28;20732;-70
2022/06/25 06:54:54;;;;;;;4.50;3.10;;;22.20;53.80;;;;;;5022659;28;20529;-70
2022/06/25 06:57:20;;;;;;;5.60;3.40;;;22.30;49.50;;;;;;5029823;28;20308;-70
2022/06/25 06:59:46;;;;;;;4.13;2.90;;;22.30;46.70;;;;;;5022750;28;20180;-70
2022/06/25 07:02:12;;;;;;;4.23;2.80;;;22.20;48.90;;;;;;5014623;28;20185;-70
2022/06/25 07:04:37;;;;;;;7.50;2.90;;;22.60;42.60;;;;;;5022312;28;20225;-70
2022/06/25 07:07:03;;;;;;;4.73;2.60;;;22.50;44.00;;;;;;5022789;28;20172;-70
2022/06/25 07:09:29;;;;;;;4.40;2.80;;;21.60;47.00;;;;;;5014055;28;20198;-70
2022/06/25 07:11:54;;;;;;;3.43;2.80;;;22.10;53.10;;;;;;5025540;28;20175;-71
2022/06/25 07:14:20;;;;;;;3.50;3.00;;;22.50;49.80;;;;;;5019382;28;20189;-70
2022/06/25 07:16:45;;;;;;;3.63;3.00;;;22.70;46.20;;;;;;5022936;28;20538;-70
2022/06/25 07:19:11;;;;;;;3.77;2.90;;;23.00;47.50;;;;;;5022770;28;20175;-70
2022/06/25 07:21:37;;;;;;;5.27;2.93;;;23.00;46.50;;;;;;5027929;28;20224;-70
2022/06/25 07:24:02;;;;;;;4.10;2.80;;;23.10;43.10;;;;;;5019431;28;20198;-71
2022/06/25 07:26:28;;;;;;;7.40;2.90;;;23.00;42.50;;;;;;5025050;28;21007;-70
2022/06/25 07:28:54;;;;;;;4.53;2.50;;;22.10;43.20;;;;;;5023372;28;20239;-71
2022/06/25 07:31:21;;;;;;;3.27;2.60;;;21.70;44.20;;;;;;5032226;28;20238;-71
2022/06/25 07:33:46;;;;;;;3.20;2.70;;;21.40;46.60;;;;;;5031778;28;20428;-71
2022/06/25 07:36:12;;;;;;;2.80;2.43;;;21.40;47.20;;;;;;5034484;28;20522;-71
2022/06/25 07:38:38;;;;;;;4.67;2.67;;;21.60;45.30;;;;;;5026573;28;20176;-71
2022/06/25 07:41:04;;;;;;;4.83;3.17;;;21.60;45.10;;;;;;5034132;28;20675;-71
2022/06/25 07:43:30;;;;;;;5.70;3.10;;;22.40;43.90;;;;;;5032895;28;20197;-71
2022/06/25 07:45:57;;;;;;;3.80;3.10;;;22.40;43.10;;;;;;5034797;28;20434;-71
2022/06/25 07:48:23;;;;;;;14.10;3.20;;;23.10;44.20;;;;;;5028092;28;20165;-71
2022/06/25 07:53:32;;;;;;;6.53;3.20;;;23.20;45.00;;;;;;5029594;28;20443;-71
2022/06/25 07:55:58;;;;;;;4.97;3.37;;;23.30;46.90;;;;;;5031217;28;20442;-71
2022/06/25 07:58:24;;;;;;;3.80;3.20;;;23.40;44.80;;;;;;5026047;28;20187;-71
2022/06/25 08:00:50;;;;;;;4.20;3.30;;;23.20;41.10;;;;;;5026481;28;20272;-71
2022/06/25 08:03:16;;;;;;;7.30;3.33;;;22.70;40.80;;;;;;5028406;28;20707;-71
2022/06/25 08:05:42;;;;;;;3.87;3.07;;;22.40;41.00;;;;;;5028963;28;20455;-71
2022/06/25 08:08:07;;;;;;;4.30;3.20;;;22.60;43.00;;;;;;5032564;28;20176;-71
2022/06/25 08:10:33;;;;;;;4.07;3.37;;;23.00;41.20;;;;;;5030277;28;20185;-71
2022/06/25 08:12:59;;;;;;;10.30;3.40;;;23.40;39.10;;;;;;5032004;28;20179;-72
2022/06/25 08:15:24;;;;;;;8.17;3.60;;;23.80;41.10;;;;;;5033198;28;20295;-71
2022/06/25 08:17:50;;;;;;;18.03;3.00;;;23.60;41.60;;;;;;5025620;28;20177;-71
2022/06/25 08:20:17;;;;;;;3.93;3.30;;;23.40;39.70;;;;;;5032133;28;20201;-71
2022/06/25 08:22:42;;;;;;;5.80;3.30;;;23.40;39.90;;;;;;5027219;28;20417;-70
2022/06/25 08:25:08;;;;;;;4.73;3.43;;;23.70;40.40;;;;;;5026301;28;20202;-71
2022/06/25 08:27:43;;;;;;;5.93;3.40;;;24.10;38.50;;;;;;5033445;28;20194;-71
2022/06/25 08:30:09;;;;;;;4.13;3.30;;;23.70;43.10;;;;;;5027912;28;20994;-70
2022/06/25 08:32:34;;;;;;;10.10;3.97;;;23.80;42.70;;;;;;5029034;28;20521;-71
2022/06/25 08:35:00;;;;;;;10.83;3.57;;;24.20;39.30;;;;;;5022644;28;20985;-71
2022/06/25 08:37:26;;;;;;;6.20;3.50;;;24.20;36.50;;;;;;5023769;28;20220;-70
2022/06/25 08:39:51;;;;;;;5.80;3.50;;;24.20;38.60;;;;;;5024515;28;20634;-71
2022/06/25 08:42:17;;;;;;;6.63;3.50;;;24.40;37.30;;;;;;5029252;28;20238;-70
2022/06/25 08:44:42;;;;;;;7.87;3.40;;;24.60;36.60;;;;;;5028446;28;20223;-72
2022/06/25 08:47:09;;;;;;;5.13;3.50;;;24.80;39.10;;;;;;5028218;28;20196;-74
2022/06/25 08:49:36;;;;;;;9.87;3.50;;;24.90;35.90;;;;;;5024565;28;20199;-74
2022/06/25 08:52:04;;;;;;;7.80;3.97;;;24.00;36.60;;;;;;5023250;28;20453;-72
2022/06/25 08:54:33;;;;;;;5.30;3.20;;;24.40;41.10;;;;;;5026184;28;20482;-71
2022/06/25 08:56:59;;;;;;;9.07;4.60;;;24.00;35.20;;;;;;5027575;28;20470;-69
2022/06/25 08:59:25;;;;;;;10.80;5.07;;;24.10;37.70;;;;;;5029674;28;20940;-73
2022/06/25 09:01:51;;;;;;;6.97;4.37;;;24.40;39.10;;;;;;5011018;28;20278;-75
2022/06/25 09:04:16;;;;;;;10.63;4.10;;;24.60;36.20;;;;;;5031338;28;20558;-72
2022/06/25 09:06:44;;;;;;;5.23;3.60;;;24.70;38.20;;;;;;5024474;28;20201;-71
2022/06/25 09:09:16;;;;;;;8.17;3.87;;;24.70;36.90;;;;;;5025776;28;20187;-72
2022/06/25 09:11:49;;;;;;;6.97;3.70;;;24.90;39.50;;;;;;5026234;28;20510;-73
2022/06/25 09:14:26;;;;;;;9.23;3.60;;;25.00;39.40;;;;;;5028455;28;20427;-73
2022/06/25 09:16:56;;;;;;;3.73;3.40;;;24.90;37.70;;;;;;5024792;28;20545;-73
2022/06/25 09:19:32;;;;;;;4.77;3.47;;;25.10;38.00;;;;;;5028209;28;20464;-72
2022/06/25 09:21:59;;;;;;;8.77;3.50;;;24.90;33.00;;;;;;5020649;28;20470;-73
2022/06/25 09:24:45;;;;;;;7.90;3.27;;;24.40;33.40;;;;;;5008710;28;20970;-72
2022/06/25 09:27:11;;;;;;;6.30;3.70;;;24.70;34.90;;;;;;5029982;28;20522;-72
2022/06/25 09:29:45;;;;;;;5.83;3.40;;;24.70;35.20;;;;;;5025310;28;20424;-72
2022/06/25 09:32:13;;;;;;;4.50;3.20;;;24.60;36.70;;;;;;5025993;28;20485;-72
2022/06/25 09:34:39;;;;;;;6.50;3.73;;;24.70;34.00;;;;;;5026855;28;20477;-73
2022/06/25 09:37:23;;;;;;;6.53;3.53;;;24.90;35.10;;;;;;5021133;28;20434;-73
2022/06/25 09:39:49;;;;;;;4.90;3.50;;;25.70;36.60;;;;;;5022489;28;20798;-72
2022/06/25 09:42:27;;;;;;;7.53;3.53;;;25.70;32.30;;;;;;5030944;28;20427;-72
2022/06/25 09:45:06;;;;;;;3.90;3.10;;;25.10;35.20;;;;;;5022683;28;20467;-72
2022/06/25 09:47:40;;;;;;;6.13;3.63;;;25.20;32.90;;;;;;5020687;28;20426;-72
2022/06/25 09:50:09;;;;;;;4.13;3.20;;;25.60;34.70;;;;;;5011805;28;20427;-73
2022/06/25 09:52:36;;;;;;;4.20;3.40;;;26.20;36.30;;;;;;5021112;28;20428;-72
2022/06/25 09:55:04;;;;;;;5.77;3.00;;;26.60;29.90;;;;;;5023372;28;20457;-73
2022/06/25 09:57:31;;;;;;;6.73;3.60;;;26.90;30.70;;;;;;5023238;28;20514;-73
2022/06/25 09:59:59;;;;;;;8.90;3.10;;;26.80;33.30;;;;;;5027625;28;20633;-73
2022/06/25 10:02:29;;;;;;;2.83;2.57;;;26.70;30.50;;;;;;5019737;28;20420;-73
2022/06/25 10:05:01;;;;;;;5.80;3.13;;;26.60;30.40;;;;;;5021926;28;20472;-73
2022/06/25 10:10:20;;;;;;;6.47;2.97;;;27.20;30.90;;;;;;5012630;28;20434;-73
2022/06/25 10:12:47;;;;;;;5.77;3.27;;;27.20;29.60;;;;;;5019663;28;20434;-73
2022/06/25 10:15:17;;;;;;;5.47;3.27;;;27.10;31.10;;;;;;5015137;28;20505;-72
2022/06/25 10:17:47;;;;;;;8.43;3.17;;;27.20;30.00;;;;;;5017183;28;20478;-73
2022/06/25 10:20:14;;;;;;;5.40;3.60;;;27.30;32.50;;;;;;5018387;28;20978;-72
2022/06/25 10:22:41;;;;;;;5.27;3.00;;;27.20;29.00;;;;;;5019637;28;20438;-72
2022/06/25 10:25:15;;;;;;;4.83;2.90;;;25.50;29.80;;;;;;5020743;28;20499;-72
2022/06/25 10:27:44;;;;;;;4.10;3.07;;;24.90;31.40;;;;;;5023122;28;20521;-72
2022/06/25 10:30:11;;;;;;;5.10;3.10;;;25.40;32.20;;;;;;5021427;28;20766;-72
2022/06/25 10:32:43;;;;;;;4.93;3.03;;;25.80;31.80;;;;;;5023545;28;20431;-72
2022/06/25 10:35:09;;;;;;;4.20;2.90;;;26.00;29.90;;;;;;5022006;28;20447;-72
2022/06/25 10:38:12;;;;;;;4.40;2.80;;;26.20;30.00;;;;;;5030892;28;20431;-72
2022/06/25 10:42:58;;;;;;;6.33;3.10;;;27.00;30.70;;;;;;4950464;29;20194;-72
2022/06/25 10:43:56;;;;;;;5.33;3.17;;;27.30;28.20;;;;;;4943314;29;20477;-72
2022/06/25 10:46:26;;;;;;;3.40;2.60;;;27.80;26.90;;;;;;4949954;29;20453;-72
2022/06/25 10:49:17;;;;;;;6.40;2.87;;;27.80;27.50;;;;;;4939546;29;20443;-73
2022/06/25 10:51:42;;;;;;;3.60;3.00;;;27.80;28.90;;;;;;4947377;29;20567;-73
2022/06/25 10:54:12;;;;;;;3.30;2.67;;;28.10;25.10;;;;;;4939567;29;20526;-72
2022/06/25 10:56:49;;;;;;;5.73;2.93;;;27.20;25.90;;;;;;4946799;29;20262;-72
2022/06/25 10:59:52;;;;;;;4.53;2.80;;;27.00;27.40;;;;;;4939626;29;20522;-72
2022/06/25 11:02:23;;;;;;;4.73;3.07;;;27.40;29.90;;;;;;4948239;29;20770;-72
2022/06/25 11:04:52;;;;;;;4.33;3.47;;;27.50;27.90;;;;;;4943277;29;20489;-72
2022/06/25 11:07:26;;;;;;;4.43;3.17;;;26.90;30.60;;;;;;4943382;29;20439;-72
2022/06/25 11:09:52;;;;;;;3.80;2.80;;;27.40;25.60;;;;;;4951359;29;20442;-73
2022/06/25 11:12:18;;;;;;;4.23;2.83;;;27.50;26.20;;;;;;4943174;29;20439;-73
2022/06/25 11:15:18;;;;;;;5.23;2.83;;;28.00;26.10;;;;;;4995764;28;20228;-73
2022/06/25 11:17:43;;;;;;;7.67;2.97;;;28.40;28.30;;;;;;4942947;29;20946;-72
2022/06/25 11:20:11;;;;;;;3.70;3.00;;;27.60;25.50;;;;;;4952233;29;20445;-73
2022/06/25 11:22:50;;;;;;;3.93;2.73;;;27.80;29.70;;;;;;4953587;29;20202;-73
2022/06/25 11:30:49;;;;;;;4.97;2.50;;;29.50;24.00;;;;;;4947989;29;20526;-73
2022/06/25 11:33:15;;;;;;;6.47;2.33;;;29.90;25.00;;;;;;4951954;29;20533;-73
2022/06/25 11:35:44;;;;;;;5.17;2.70;;;30.30;25.70;;;;;;4945581;29;20273;-73
2022/06/25 11:38:17;;;;;;;2.93;2.50;;;29.80;21.70;;;;;;4953364;29;20430;-72
2022/06/25 11:40:43;;;;;;;6.53;2.53;;;29.90;23.00;;;;;;4953762;29;20435;-72
2022/06/25 11:43:09;;;;;;;4.90;2.87;;;29.60;23.80;;;;;;4953699;29;20466;-72
2022/06/25 11:45:51;;;;;;;3.90;2.40;;;28.90;23.40;;;;;;4947982;29;20243;-73
2022/06/25 11:48:17;;;;;;;2.63;2.53;;;28.50;25.40;;;;;;4948370;29;20537;-72
2022/06/25 11:50:43;;;;;;;4.97;2.87;;;28.30;23.20;;;;;;4948973;29;20536;-72
2022/06/25 11:53:09;;;;;;;2.80;2.40;;;28.80;26.90;;;;;;4957027;28;20327;-72
2022/06/25 11:55:37;;;;;;;6.60;2.50;;;29.10;24.50;;;;;;5030231;28;20893;-73
2022/06/25 11:58:04;;;;;;;8.80;2.57;;;29.70;25.00;;;;;;5025450;28;20189;-73
2022/06/25 12:00:30;;;;;;;7.20;2.20;;;30.70;22.10;;;;;;5033040;28;20431;-73
2022/06/25 12:03:03;;;;;;;11.30;2.50;;;31.00;22.80;;;;;;5029565;28;20442;-73
2022/06/25 12:05:29;;;;;;;3.50;2.70;;;30.40;22.10;;;;;;5029767;28;20204;-72
2022/06/25 12:07:56;;;;;;;8.07;2.30;;;29.60;23.00;;;;;;5030143;28;20462;-72
2022/06/25 12:10:23;;;;;;;4.30;2.50;;;29.40;25.20;;;;;;5025049;28;20184;-72
2022/06/25 12:12:49;;;;;;;2.97;2.30;;;29.30;25.10;;;;;;5027945;28;20561;-73
2022/06/25 12:15:15;;;;;;;4.10;2.70;;;29.10;23.10;;;;;;5026679;28;20463;-70
2022/06/25 12:17:43;;;;;;;4.97;2.40;;;28.70;26.00;;;;;;5026148;28;20910;-72
2022/06/25 12:20:13;;;;;;;3.20;2.50;;;28.50;23.20;;;;;;5030120;28;20418;-72
2022/06/25 12:22:41;;;;;;;4.37;2.70;;;28.90;24.90;;;;;;5022810;28;20498;-73
2022/06/25 12:25:08;;;;;;;3.70;2.50;;;29.60;22.30;;;;;;5030656;28;20545;-72
2022/06/25 12:27:47;;;;;;;6.33;2.50;;;29.90;22.10;;;;;;5020175;28;20467;-73
2022/06/25 12:30:13;;;;;;;5.50;2.53;;;31.40;20.40;;;;;;5029982;28;20426;-73
2022/06/25 12:32:41;;;;;;;3.80;2.10;;;32.70;22.40;;;;;;5023878;28;20434;-73
2022/06/25 12:35:19;;;;;;;2.80;2.23;;;34.00;16.90;;;;;;5024017;28;20490;-73
2022/06/25 12:38:09;;;;;;;3.70;2.43;;;34.50;15.20;;;;;;5029385;28;20994;-73
2022/06/25 12:40:45;;;;;;;3.53;2.47;;;35.10;17.50;;;;;;5026276;28;20431;-73
2022/06/25 12:43:13;;;;;;;3.00;2.40;;;34.50;17.20;;;;;;5027106;28;20478;-73
2022/06/25 12:45:43;;;;;;;6.80;2.60;;;33.30;18.60;;;;;;5028581;28;20458;-73
2022/06/25 12:48:11;;;;;;;5.70;2.20;;;32.90;16.90;;;;;;5025171;28;20443;-72
2022/06/25 12:50:40;;;;;;;3.93;2.17;;;32.80;16.70;;;;;;5024557;28;20937;-75
2022/06/25 12:53:11;;;;;;;3.53;2.33;;;32.50;16.80;;;;;;5023902;28;20522;-71
2022/06/25 12:55:39;;;;;;;14.63;2.87;;;30.80;19.00;;;;;;5023715;28;20470;-71
2022/06/25 12:58:09;;;;;;;3.93;2.50;;;31.30;21.20;;;;;;5024744;28;20427;-72
2022/06/25 13:00:37;;;;;;;3.20;2.13;;;31.80;21.80;;;;;;5029498;28;20420;-71
2022/06/25 13:03:05;;;;;;;2.27;2.03;;;31.70;17.70;;;;;;5027558;28;20439;-71
2022/06/25 13:05:31;;;;;;;3.67;2.50;;;30.90;18.80;;;;;;5025527;28;20458;-71
2022/06/25 13:07:56;;;;;;;2.70;2.17;;;30.90;22.50;;;;;;5027107;28;20941;-71
2022/06/25 13:10:22;;;;;;;2.87;2.00;;;31.80;19.50;;;;;;5031688;28;20176;-71
2022/06/25 13:12:50;;;;;;;2.80;1.83;;;32.00;18.10;;;;;;5015585;28;20618;-71
2022/06/25 13:15:16;;;;;;;2.37;2.07;;;31.70;18.10;;;;;;5012799;28;20200;-71